sensor_id;sensor_type;location;lat;lon;timestamp;P1;durP1;ratioP1;P2;durP2;ratioP2
17662;SDS011;8950;56.892;15.090;2022-08-06T00:02:03;1.33;;;1.23;;
17662;SDS011;8950;56.892;15.090;2022-08-06T00:04:30;2.80;;;1.10;;
17662;SDS011;8950;56.892;15.090;2022-08-06T00:06:57;2.25;;;1.35;;
17662;SDS011;8950;56.892;15.090;2022-08-06T00:09:24;1.23;;;1.13;;
17662;SDS011;8950;56.892;15.090;2022-08-06T00:11:55;1.52;;;1.25;;
17662;SDS011;8950;56.892;15.090;2022-08-06T00:14:21;1.48;;;1.30;;
17662;SDS011;8950;56.892;15.090;2022-08-06T00:16:48;2.53;;;1.30;;
17662;SDS011;8950;56.892;15.090;2022-08-06T00:19:14;1.40;;;1.30;;
17662;SDS011;8950;56.892;15.090;2022-08-06T00:21:42;2.83;;;1.38;;
17662;SDS011;8950;56.892;15.090;2022-08-06T00:24:08;1.33;;;1.23;;
17662;SDS011;8950;56.892;15.090;2022-08-06T00:26:35;1.23;;;1.10;;
17662;SDS011;8950;56.892;15.090;2022-08-06T00:29:03;1.50;;;1.30;;
17662;SDS011;8950;56.892;15.090;2022-08-06T00:31:29;1.95;;;1.13;;
17662;SDS011;8950;56.892;15.090;2022-08-06T00:33:56;3.17;;;1.40;;
17662;SDS011;8950;56.892;15.090;2022-08-06T00:36:26;2.03;;;1.30;;
17662;SDS011;8950;56.892;15.090;2022-08-06T00:38:54;1.67;;;1.30;;
17662;SDS011;8950;56.892;15.090;2022-08-06T00:41:21;2.42;;;1.40;;
17662;SDS011;8950;56.892;15.090;2022-08-06T00:43:47;2.35;;;1.40;;
17662;SDS011;8950;56.892;15.090;2022-08-06T00:46:14;1.80;;;1.33;;
17662;SDS011;8950;56.892;15.090;2022-08-06T00:48:41;1.95;;;1.48;;
17662;SDS011;8950;56.892;15.090;2022-08-06T00:51:07;1.90;;;1.30;;
17662;SDS011;8950;56.892;15.090;2022-08-06T00:53:34;2.85;;;1.60;;
17662;SDS011;8950;56.892;15.090;2022-08-06T00:56:03;1.55;;;1.20;;
17662;SDS011;8950;56.892;15.090;2022-08-06T00:58:30;3.05;;;1.50;;
17662;SDS011;8950;56.892;15.090;2022-08-06T01:00:56;2.47;;;1.73;;
17662;SDS011;8950;56.892;15.090;2022-08-06T01:03:23;2.80;;;1.40;;
17662;SDS011;8950;56.892;15.090;2022-08-06T01:05:49;2.40;;;1.40;;
17662;SDS011;8950;56.892;15.090;2022-08-06T01:08:16;2.13;;;1.60;;
17662;SDS011;8950;56.892;15.090;2022-08-06T01:10:43;3.92;;;1.30;;
17662;SDS011;8950;56.892;15.090;2022-08-06T01:13:11;1.92;;;1.45;;
17662;SDS011;8950;56.892;15.090;2022-08-06T01:15:38;2.40;;;1.35;;
17662;SDS011;8950;56.892;15.090;2022-08-06T01:18:07;2.40;;;1.40;;
17662;SDS011;8950;56.892;15.090;2022-08-06T01:20:39;3.00;;;1.40;;
17662;SDS011;8950;56.892;15.090;2022-08-06T01:23:11;3.58;;;1.40;;
17662;SDS011;8950;56.892;15.090;2022-08-06T01:25:49;2.58;;;1.27;;
17662;SDS011;8950;56.892;15.090;2022-08-06T01:28:22;3.58;;;1.42;;
17662;SDS011;8950;56.892;15.090;2022-08-06T01:30:51;2.85;;;1.30;;
17662;SDS011;8950;56.892;15.090;2022-08-06T01:33:20;2.42;;;1.38;;
17662;SDS011;8950;56.892;15.090;2022-08-06T01:35:49;2.67;;;1.38;;
17662;SDS011;8950;56.892;15.090;2022-08-06T01:38:17;3.15;;;1.52;;
17662;SDS011;8950;56.892;15.090;2022-08-06T01:40:46;2.20;;;1.48;;
17662;SDS011;8950;56.892;15.090;2022-08-06T01:43:14;4.07;;;1.40;;
17662;SDS011;8950;56.892;15.090;2022-08-06T01:45:43;2.40;;;1.40;;
17662;SDS011;8950;56.892;15.090;2022-08-06T01:48:12;3.42;;;1.33;;
17662;SDS011;8950;56.892;15.090;2022-08-06T01:50:39;1.58;;;1.10;;
17662;SDS011;8950;56.892;15.090;2022-08-06T01:53:07;3.25;;;1.35;;
17662;SDS011;8950;56.892;15.090;2022-08-06T01:55:35;3.10;;;1.48;;
17662;SDS011;8950;56.892;15.090;2022-08-06T01:58:03;3.80;;;1.60;;
17662;SDS011;8950;56.892;15.090;2022-08-06T02:00:31;2.80;;;1.67;;
17662;SDS011;8950;56.892;15.090;2022-08-06T02:03:00;2.83;;;1.80;;
17662;SDS011;8950;56.892;15.090;2022-08-06T02:05:27;2.17;;;1.33;;
17662;SDS011;8950;56.892;15.090;2022-08-06T02:07:55;2.90;;;1.27;;
17662;SDS011;8950;56.892;15.090;2022-08-06T02:10:23;2.88;;;1.60;;
17662;SDS011;8950;56.892;15.090;2022-08-06T02:12:50;3.70;;;1.40;;
17662;SDS011;8950;56.892;15.090;2022-08-06T02:15:18;2.97;;;1.40;;
17662;SDS011;8950;56.892;15.090;2022-08-06T02:17:47;4.22;;;1.50;;
17662;SDS011;8950;56.892;15.090;2022-08-06T02:20:16;4.53;;;1.73;;
17662;SDS011;8950;56.892;15.090;2022-08-06T02:22:43;5.30;;;1.52;;
17662;SDS011;8950;56.892;15.090;2022-08-06T02:25:11;2.65;;;1.38;;
17662;SDS011;8950;56.892;15.090;2022-08-06T02:27:38;2.63;;;1.40;;
17662;SDS011;8950;56.892;15.090;2022-08-06T02:30:06;1.83;;;1.30;;
17662;SDS011;8950;56.892;15.090;2022-08-06T02:32:33;3.55;;;1.30;;
17662;SDS011;8950;56.892;15.090;2022-08-06T02:34:59;5.68;;;1.73;;
17662;SDS011;8950;56.892;15.090;2022-08-06T02:37:29;3.42;;;1.45;;
17662;SDS011;8950;56.892;15.090;2022-08-06T02:39:57;2.80;;;1.75;;
17662;SDS011;8950;56.892;15.090;2022-08-06T02:42:27;2.80;;;1.50;;
17662;SDS011;8950;56.892;15.090;2022-08-06T02:44:58;3.58;;;1.58;;
17662;SDS011;8950;56.892;15.090;2022-08-06T02:47:27;2.97;;;1.50;;
17662;SDS011;8950;56.892;15.090;2022-08-06T02:49:56;3.92;;;1.60;;
17662;SDS011;8950;56.892;15.090;2022-08-06T02:52:26;4.40;;;1.65;;
17662;SDS011;8950;56.892;15.090;2022-08-06T02:54:58;3.13;;;1.65;;
17662;SDS011;8950;56.892;15.090;2022-08-06T02:57:27;4.05;;;1.65;;
17662;SDS011;8950;56.892;15.090;2022-08-06T02:59:56;4.32;;;1.60;;
17662;SDS011;8950;56.892;15.090;2022-08-06T03:02:26;4.93;;;1.60;;
17662;SDS011;8950;56.892;15.090;2022-08-06T03:04:55;5.13;;;1.75;;
17662;SDS011;8950;56.892;15.090;2022-08-06T03:07:22;3.58;;;1.58;;
17662;SDS011;8950;56.892;15.090;2022-08-06T03:09:52;4.13;;;1.35;;
17662;SDS011;8950;56.892;15.090;2022-08-06T03:12:20;4.00;;;1.60;;
17662;SDS011;8950;56.892;15.090;2022-08-06T03:14:47;2.30;;;1.70;;
17662;SDS011;8950;56.892;15.090;2022-08-06T03:17:14;4.45;;;1.90;;
17662;SDS011;8950;56.892;15.090;2022-08-06T03:19:41;4.35;;;1.55;;
17662;SDS011;8950;56.892;15.090;2022-08-06T03:22:09;3.97;;;1.63;;
17662;SDS011;8950;56.892;15.090;2022-08-06T03:24:37;3.65;;;1.58;;
17662;SDS011;8950;56.892;15.090;2022-08-06T03:27:05;3.90;;;1.70;;
17662;SDS011;8950;56.892;15.090;2022-08-06T03:29:34;5.13;;;1.70;;
17662;SDS011;8950;56.892;15.090;2022-08-06T03:32:01;3.38;;;1.60;;
17662;SDS011;8950;56.892;15.090;2022-08-06T03:34:28;1.90;;;1.50;;
17662;SDS011;8950;56.892;15.090;2022-08-06T03:36:55;3.67;;;1.55;;
17662;SDS011;8950;56.892;15.090;2022-08-06T03:39:22;3.30;;;1.48;;
17662;SDS011;8950;56.892;15.090;2022-08-06T03:41:50;3.80;;;1.60;;
17662;SDS011;8950;56.892;15.090;2022-08-06T03:44:16;2.70;;;1.70;;
17662;SDS011;8950;56.892;15.090;2022-08-06T03:46:44;2.75;;;1.50;;
17662;SDS011;8950;56.892;15.090;2022-08-06T03:49:14;3.70;;;1.70;;
17662;SDS011;8950;56.892;15.090;2022-08-06T03:51:43;3.17;;;1.60;;
17662;SDS011;8950;56.892;15.090;2022-08-06T03:54:10;2.03;;;1.50;;
17662;SDS011;8950;56.892;15.090;2022-08-06T03:56:37;4.38;;;1.70;;
17662;SDS011;8950;56.892;15.090;2022-08-06T03:59:05;7.72;;;1.85;;
17662;SDS011;8950;56.892;15.090;2022-08-06T04:01:34;5.47;;;1.60;;
17662;SDS011;8950;56.892;15.090;2022-08-06T04:04:02;4.50;;;1.58;;
17662;SDS011;8950;56.892;15.090;2022-08-06T04:06:29;2.95;;;1.63;;
17662;SDS011;8950;56.892;15.090;2022-08-06T04:08:56;3.83;;;1.75;;
17662;SDS011;8950;56.892;15.090;2022-08-06T04:11:23;3.90;;;1.60;;
17662;SDS011;8950;56.892;15.090;2022-08-06T04:13:50;4.13;;;1.60;;
17662;SDS011;8950;56.892;15.090;2022-08-06T04:16:16;3.08;;;1.65;;
17662;SDS011;8950;56.892;15.090;2022-08-06T04:18:43;5.65;;;1.75;;
17662;SDS011;8950;56.892;15.090;2022-08-06T04:21:12;4.78;;;1.90;;
17662;SDS011;8950;56.892;15.090;2022-08-06T04:23:40;5.88;;;1.58;;
17662;SDS011;8950;56.892;15.090;2022-08-06T04:26:07;4.20;;;1.80;;
17662;SDS011;8950;56.892;15.090;2022-08-06T04:28:35;3.42;;;1.90;;
17662;SDS011;8950;56.892;15.090;2022-08-06T04:31:02;4.18;;;1.75;;
17662;SDS011;8950;56.892;15.090;2022-08-06T04:33:29;2.58;;;1.50;;
17662;SDS011;8950;56.892;15.090;2022-08-06T04:35:58;4.72;;;1.77;;
17662;SDS011;8950;56.892;15.090;2022-08-06T04:38:31;3.17;;;1.40;;
17662;SDS011;8950;56.892;15.090;2022-08-06T04:40:58;3.13;;;1.83;;
17662;SDS011;8950;56.892;15.090;2022-08-06T04:43:25;3.83;;;1.50;;
17662;SDS011;8950;56.892;15.090;2022-08-06T04:45:52;3.22;;;1.65;;
17662;SDS011;8950;56.892;15.090;2022-08-06T04:48:18;3.17;;;1.52;;
17662;SDS011;8950;56.892;15.090;2022-08-06T04:50:45;4.18;;;1.83;;
17662;SDS011;8950;56.892;15.090;2022-08-06T04:53:12;3.75;;;1.70;;
17662;SDS011;8950;56.892;15.090;2022-08-06T04:55:42;3.25;;;1.80;;
17662;SDS011;8950;56.892;15.090;2022-08-06T04:58:09;2.80;;;1.80;;
17662;SDS011;8950;56.892;15.090;2022-08-06T05:00:36;3.78;;;1.88;;
17662;SDS011;8950;56.892;15.090;2022-08-06T05:03:03;4.07;;;1.50;;
17662;SDS011;8950;56.892;15.090;2022-08-06T05:05:30;4.20;;;1.88;;
17662;SDS011;8950;56.892;15.090;2022-08-06T05:07:57;2.42;;;1.45;;
17662;SDS011;8950;56.892;15.090;2022-08-06T05:10:27;2.75;;;1.80;;
17662;SDS011;8950;56.892;15.090;2022-08-06T05:12:57;4.90;;;1.58;;
17662;SDS011;8950;56.892;15.090;2022-08-06T05:15:26;3.47;;;1.63;;
17662;SDS011;8950;56.892;15.090;2022-08-06T05:17:55;5.55;;;1.70;;
17662;SDS011;8950;56.892;15.090;2022-08-06T05:20:22;4.47;;;1.88;;
17662;SDS011;8950;56.892;15.090;2022-08-06T05:22:49;4.28;;;2.20;;
17662;SDS011;8950;56.892;15.090;2022-08-06T05:25:15;4.10;;;1.98;;
17662;SDS011;8950;56.892;15.090;2022-08-06T05:27:42;3.90;;;1.88;;
17662;SDS011;8950;56.892;15.090;2022-08-06T05:30:11;5.20;;;1.98;;
17662;SDS011;8950;56.892;15.090;2022-08-06T05:32:41;4.60;;;1.70;;
17662;SDS011;8950;56.892;15.090;2022-08-06T05:35:07;5.30;;;1.85;;
17662;SDS011;8950;56.892;15.090;2022-08-06T05:37:34;5.18;;;1.98;;
17662;SDS011;8950;56.892;15.090;2022-08-06T05:40:00;5.03;;;1.85;;
17662;SDS011;8950;56.892;15.090;2022-08-06T05:42:27;4.15;;;1.80;;
17662;SDS011;8950;56.892;15.090;2022-08-06T05:44:53;4.25;;;1.52;;
17662;SDS011;8950;56.892;15.090;2022-08-06T05:47:22;4.40;;;1.98;;
17662;SDS011;8950;56.892;15.090;2022-08-06T05:49:52;5.60;;;2.15;;
17662;SDS011;8950;56.892;15.090;2022-08-06T05:52:19;5.47;;;1.80;;
17662;SDS011;8950;56.892;15.090;2022-08-06T05:54:51;6.07;;;2.17;;
17662;SDS011;8950;56.892;15.090;2022-08-06T05:57:19;4.30;;;1.75;;
17662;SDS011;8950;56.892;15.090;2022-08-06T05:59:49;6.13;;;1.90;;
17662;SDS011;8950;56.892;15.090;2022-08-06T06:02:16;6.32;;;2.10;;
17662;SDS011;8950;56.892;15.090;2022-08-06T06:04:45;2.88;;;1.63;;
17662;SDS011;8950;56.892;15.090;2022-08-06T06:07:13;4.60;;;1.77;;
17662;SDS011;8950;56.892;15.090;2022-08-06T06:09:40;4.43;;;1.85;;
17662;SDS011;8950;56.892;15.090;2022-08-06T06:12:06;4.07;;;1.70;;
17662;SDS011;8950;56.892;15.090;2022-08-06T06:14:35;3.60;;;1.42;;
17662;SDS011;8950;56.892;15.090;2022-08-06T06:20:04;4.45;;;1.75;;
17662;SDS011;8950;56.892;15.090;2022-08-06T06:22:34;4.57;;;1.70;;
17662;SDS011;8950;56.892;15.090;2022-08-06T06:25:06;2.17;;;1.50;;
17662;SDS011;8950;56.892;15.090;2022-08-06T06:27:38;4.43;;;2.00;;
17662;SDS011;8950;56.892;15.090;2022-08-06T06:30:08;5.65;;;1.90;;
17662;SDS011;8950;56.892;15.090;2022-08-06T06:32:38;2.72;;;1.58;;
17662;SDS011;8950;56.892;15.090;2022-08-06T06:35:10;3.83;;;1.67;;
17662;SDS011;8950;56.892;15.090;2022-08-06T06:37:39;4.82;;;1.80;;
17662;SDS011;8950;56.892;15.090;2022-08-06T06:40:12;4.57;;;1.88;;
17662;SDS011;8950;56.892;15.090;2022-08-06T06:42:56;4.50;;;1.80;;
17662;SDS011;8950;56.892;15.090;2022-08-06T06:45:24;4.60;;;2.08;;
17662;SDS011;8950;56.892;15.090;2022-08-06T06:47:58;5.18;;;1.67;;
17662;SDS011;8950;56.892;15.090;2022-08-06T06:50:29;5.13;;;1.75;;
17662;SDS011;8950;56.892;15.090;2022-08-06T06:52:55;1.85;;;1.50;;
17662;SDS011;8950;56.892;15.090;2022-08-06T06:55:23;4.85;;;1.67;;
17662;SDS011;8950;56.892;15.090;2022-08-06T06:57:53;2.55;;;1.50;;
17662;SDS011;8950;56.892;15.090;2022-08-06T07:00:21;2.85;;;1.50;;
17662;SDS011;8950;56.892;15.090;2022-08-06T07:02:47;3.05;;;1.50;;
17662;SDS011;8950;56.892;15.090;2022-08-06T07:05:15;2.88;;;1.50;;
17662;SDS011;8950;56.892;15.090;2022-08-06T07:07:43;2.25;;;1.27;;
17662;SDS011;8950;56.892;15.090;2022-08-06T07:10:12;7.82;;;2.00;;
17662;SDS011;8950;56.892;15.090;2022-08-06T07:12:39;2.78;;;1.50;;
17662;SDS011;8950;56.892;15.090;2022-08-06T07:15:07;3.30;;;1.73;;
17662;SDS011;8950;56.892;15.090;2022-08-06T07:17:36;2.78;;;1.70;;
17662;SDS011;8950;56.892;15.090;2022-08-06T07:20:05;3.80;;;1.50;;
17662;SDS011;8950;56.892;15.090;2022-08-06T07:22:33;3.10;;;1.55;;
17662;SDS011;8950;56.892;15.090;2022-08-06T07:25:02;4.93;;;1.90;;
17662;SDS011;8950;56.892;15.090;2022-08-06T07:27:30;2.72;;;1.60;;
17662;SDS011;8950;56.892;15.090;2022-08-06T07:29:58;4.32;;;1.50;;
17662;SDS011;8950;56.892;15.090;2022-08-06T07:32:26;4.72;;;1.70;;
17662;SDS011;8950;56.892;15.090;2022-08-06T07:34:53;3.95;;;1.63;;
17662;SDS011;8950;56.892;15.090;2022-08-06T07:37:20;2.90;;;1.50;;
17662;SDS011;8950;56.892;15.090;2022-08-06T07:39:47;3.15;;;1.67;;
17662;SDS011;8950;56.892;15.090;2022-08-06T07:42:16;3.42;;;1.60;;
17662;SDS011;8950;56.892;15.090;2022-08-06T07:44:43;2.55;;;1.42;;
17662;SDS011;8950;56.892;15.090;2022-08-06T07:47:12;3.03;;;1.55;;
17662;SDS011;8950;56.892;15.090;2022-08-06T07:49:40;2.33;;;1.42;;
17662;SDS011;8950;56.892;15.090;2022-08-06T07:52:07;4.20;;;1.40;;
17662;SDS011;8950;56.892;15.090;2022-08-06T07:54:35;3.20;;;1.45;;
17662;SDS011;8950;56.892;15.090;2022-08-06T07:57:03;2.38;;;1.30;;
17662;SDS011;8950;56.892;15.090;2022-08-06T07:59:32;5.10;;;1.63;;
17662;SDS011;8950;56.892;15.090;2022-08-06T08:01:59;4.22;;;1.80;;
17662;SDS011;8950;56.892;15.090;2022-08-06T08:04:26;3.20;;;1.50;;
17662;SDS011;8950;56.892;15.090;2022-08-06T08:07:10;3.75;;;1.40;;
17662;SDS011;8950;56.892;15.090;2022-08-06T08:09:37;1.98;;;1.33;;
17662;SDS011;8950;56.892;15.090;2022-08-06T08:12:04;2.60;;;1.60;;
17662;SDS011;8950;56.892;15.090;2022-08-06T08:14:33;2.33;;;1.48;;
17662;SDS011;8950;56.892;15.090;2022-08-06T08:17:00;2.95;;;1.58;;
17662;SDS011;8950;56.892;15.090;2022-08-06T08:19:27;4.70;;;1.70;;
17662;SDS011;8950;56.892;15.090;2022-08-06T08:21:56;2.60;;;1.50;;
17662;SDS011;8950;56.892;15.090;2022-08-06T08:24:23;3.60;;;1.40;;
17662;SDS011;8950;56.892;15.090;2022-08-06T08:26:50;2.60;;;1.38;;
17662;SDS011;8950;56.892;15.090;2022-08-06T08:29:17;3.17;;;1.63;;
17662;SDS011;8950;56.892;15.090;2022-08-06T08:31:45;3.08;;;1.52;;
17662;SDS011;8950;56.892;15.090;2022-08-06T08:34:11;1.70;;;1.38;;
17662;SDS011;8950;56.892;15.090;2022-08-06T08:36:38;4.53;;;1.55;;
17662;SDS011;8950;56.892;15.090;2022-08-06T08:39:05;2.25;;;1.58;;
17662;SDS011;8950;56.892;15.090;2022-08-06T08:41:32;2.70;;;1.27;;
17662;SDS011;8950;56.892;15.090;2022-08-06T08:44:02;3.10;;;1.30;;
17662;SDS011;8950;56.892;15.090;2022-08-06T08:46:31;2.45;;;1.10;;
17662;SDS011;8950;56.892;15.090;2022-08-06T08:49:01;2.72;;;1.30;;
17662;SDS011;8950;56.892;15.090;2022-08-06T08:51:28;4.32;;;1.40;;
17662;SDS011;8950;56.892;15.090;2022-08-06T08:53:56;4.28;;;1.60;;
17662;SDS011;8950;56.892;15.090;2022-08-06T08:56:25;2.45;;;1.38;;
17662;SDS011;8950;56.892;15.090;2022-08-06T08:58:52;3.80;;;1.40;;
17662;SDS011;8950;56.892;15.090;2022-08-06T09:01:18;2.08;;;1.38;;
17662;SDS011;8950;56.892;15.090;2022-08-06T09:03:45;2.50;;;1.40;;
17662;SDS011;8950;56.892;15.090;2022-08-06T09:06:13;3.85;;;1.52;;
17662;SDS011;8950;56.892;15.090;2022-08-06T09:08:39;2.55;;;1.40;;
17662;SDS011;8950;56.892;15.090;2022-08-06T09:11:06;3.05;;;1.65;;
17662;SDS011;8950;56.892;15.090;2022-08-06T09:13:33;2.20;;;1.23;;
17662;SDS011;8950;56.892;15.090;2022-08-06T09:16:00;1.65;;;1.40;;
17662;SDS011;8950;56.892;15.090;2022-08-06T09:18:26;1.75;;;1.25;;
17662;SDS011;8950;56.892;15.090;2022-08-06T09:20:53;1.55;;;1.30;;
17662;SDS011;8950;56.892;15.090;2022-08-06T09:23:21;2.78;;;1.40;;
17662;SDS011;8950;56.892;15.090;2022-08-06T09:25:48;2.08;;;1.20;;
17662;SDS011;8950;56.892;15.090;2022-08-06T09:31:05;2.55;;;1.35;;
17662;SDS011;8950;56.892;15.090;2022-08-06T09:33:33;2.08;;;1.30;;
17662;SDS011;8950;56.892;15.090;2022-08-06T09:36:00;1.63;;;1.48;;
17662;SDS011;8950;56.892;15.090;2022-08-06T09:38:29;1.80;;;1.33;;
17662;SDS011;8950;56.892;15.090;2022-08-06T09:41:02;3.75;;;1.60;;
17662;SDS011;8950;56.892;15.090;2022-08-06T09:43:29;2.55;;;1.42;;
17662;SDS011;8950;56.892;15.090;2022-08-06T09:45:56;2.55;;;1.35;;
17662;SDS011;8950;56.892;15.090;2022-08-06T09:48:22;2.85;;;1.38;;
17662;SDS011;8950;56.892;15.090;2022-08-06T09:50:49;1.67;;;1.13;;
17662;SDS011;8950;56.892;15.090;2022-08-06T09:53:15;2.67;;;1.27;;
17662;SDS011;8950;56.892;15.090;2022-08-06T09:55:44;2.00;;;1.30;;
17662;SDS011;8950;56.892;15.090;2022-08-06T09:58:10;2.10;;;1.50;;
17662;SDS011;8950;56.892;15.090;2022-08-06T10:00:37;5.95;;;1.75;;
17662;SDS011;8950;56.892;15.090;2022-08-06T10:03:05;3.05;;;1.50;;
17662;SDS011;8950;56.892;15.090;2022-08-06T10:05:31;3.10;;;1.40;;
17662;SDS011;8950;56.892;15.090;2022-08-06T10:08:02;2.42;;;1.50;;
17662;SDS011;8950;56.892;15.090;2022-08-06T10:10:42;1.98;;;1.27;;
17662;SDS011;8950;56.892;15.090;2022-08-06T10:13:14;2.97;;;1.73;;
17662;SDS011;8950;56.892;15.090;2022-08-06T10:15:41;1.88;;;1.08;;
17662;SDS011;8950;56.892;15.090;2022-08-06T10:18:09;3.65;;;1.50;;
17662;SDS011;8950;56.892;15.090;2022-08-06T10:20:36;1.73;;;1.33;;
17662;SDS011;8950;56.892;15.090;2022-08-06T10:23:02;3.45;;;1.58;;
17662;SDS011;8950;56.892;15.090;2022-08-06T10:25:34;2.42;;;1.50;;
17662;SDS011;8950;56.892;15.090;2022-08-06T10:28:01;3.75;;;1.50;;
17662;SDS011;8950;56.892;15.090;2022-08-06T10:30:29;3.08;;;1.38;;
17662;SDS011;8950;56.892;15.090;2022-08-06T10:32:58;4.03;;;1.52;;
17662;SDS011;8950;56.892;15.090;2022-08-06T10:35:26;3.10;;;1.38;;
17662;SDS011;8950;56.892;15.090;2022-08-06T10:37:53;1.55;;;1.45;;
17662;SDS011;8950;56.892;15.090;2022-08-06T10:40:22;1.33;;;1.23;;
17662;SDS011;8950;56.892;15.090;2022-08-06T10:42:49;1.40;;;1.20;;
17662;SDS011;8950;56.892;15.090;2022-08-06T10:45:17;2.60;;;1.67;;
17662;SDS011;8950;56.892;15.090;2022-08-06T10:47:46;3.47;;;1.90;;
17662;SDS011;8950;56.892;15.090;2022-08-06T10:50:13;2.70;;;1.33;;
17662;SDS011;8950;56.892;15.090;2022-08-06T10:52:40;2.67;;;1.65;;
17662;SDS011;8950;56.892;15.090;2022-08-06T10:55:07;1.75;;;1.50;;
17662;SDS011;8950;56.892;15.090;2022-08-06T10:57:35;1.85;;;1.30;;
17662;SDS011;8950;56.892;15.090;2022-08-06T11:00:02;2.28;;;1.25;;
17662;SDS011;8950;56.892;15.090;2022-08-06T11:02:31;2.17;;;1.30;;
17662;SDS011;8950;56.892;15.090;2022-08-06T11:05:00;3.00;;;1.25;;
17662;SDS011;8950;56.892;15.090;2022-08-06T11:07:37;2.35;;;1.70;;
17662;SDS011;8950;56.892;15.090;2022-08-06T11:10:18;1.83;;;1.20;;
17662;SDS011;8950;56.892;15.090;2022-08-06T11:12:49;1.75;;;1.30;;
17662;SDS011;8950;56.892;15.090;2022-08-06T11:15:17;2.40;;;1.40;;
17662;SDS011;8950;56.892;15.090;2022-08-06T11:17:44;2.85;;;1.30;;
17662;SDS011;8950;56.892;15.090;2022-08-06T11:22:58;2.97;;;1.50;;
17662;SDS011;8950;56.892;15.090;2022-08-06T11:25:36;1.83;;;1.30;;
17662;SDS011;8950;56.892;15.090;2022-08-06T11:28:03;3.58;;;1.35;;
17662;SDS011;8950;56.892;15.090;2022-08-06T11:30:35;4.43;;;1.40;;
17662;SDS011;8950;56.892;15.090;2022-08-06T11:33:02;3.40;;;1.52;;
17662;SDS011;8950;56.892;15.090;2022-08-06T11:35:38;2.47;;;1.55;;
17662;SDS011;8950;56.892;15.090;2022-08-06T11:38:07;3.05;;;1.58;;
17662;SDS011;8950;56.892;15.090;2022-08-06T11:40:53;2.58;;;1.48;;
17662;SDS011;8950;56.892;15.090;2022-08-06T11:51:36;2.72;;;1.83;;
17662;SDS011;8950;56.892;15.090;2022-08-06T11:54:10;2.28;;;1.63;;
17662;SDS011;8950;56.892;15.090;2022-08-06T11:59:18;3.05;;;1.60;;
17662;SDS011;8950;56.892;15.090;2022-08-06T12:01:45;3.95;;;1.63;;
17662;SDS011;8950;56.892;15.090;2022-08-06T12:07:00;2.55;;;1.63;;
17662;SDS011;8950;56.892;15.090;2022-08-06T12:09:40;1.60;;;1.48;;
17662;SDS011;8950;56.892;15.090;2022-08-06T12:14:58;2.00;;;1.40;;
17662;SDS011;8950;56.892;15.090;2022-08-06T12:17:26;3.63;;;1.92;;
17662;SDS011;8950;56.892;15.090;2022-08-06T12:19:54;3.15;;;1.80;;
17662;SDS011;8950;56.892;15.090;2022-08-06T12:22:21;2.55;;;1.70;;
17662;SDS011;8950;56.892;15.090;2022-08-06T12:24:50;3.60;;;1.83;;
17662;SDS011;8950;56.892;15.090;2022-08-06T12:27:17;2.72;;;1.63;;
17662;SDS011;8950;56.892;15.090;2022-08-06T12:29:44;2.83;;;1.80;;
17662;SDS011;8950;56.892;15.090;2022-08-06T12:32:20;2.88;;;2.00;;
17662;SDS011;8950;56.892;15.090;2022-08-06T12:34:47;2.83;;;1.90;;
17662;SDS011;8950;56.892;15.090;2022-08-06T12:37:13;2.42;;;1.77;;
17662;SDS011;8950;56.892;15.090;2022-08-06T12:39:40;2.65;;;1.88;;
17662;SDS011;8950;56.892;15.090;2022-08-06T12:42:26;1.60;;;1.50;;
17662;SDS011;8950;56.892;15.090;2022-08-06T12:44:52;3.03;;;1.75;;
17662;SDS011;8950;56.892;15.090;2022-08-06T12:47:19;3.67;;;1.42;;
17662;SDS011;8950;56.892;15.090;2022-08-06T12:49:46;2.92;;;1.67;;
17662;SDS011;8950;56.892;15.090;2022-08-06T12:52:13;3.28;;;1.77;;
17662;SDS011;8950;56.892;15.090;2022-08-06T12:54:42;2.65;;;1.70;;
17662;SDS011;8950;56.892;15.090;2022-08-06T12:57:08;5.43;;;1.88;;
17662;SDS011;8950;56.892;15.090;2022-08-06T12:59:36;3.72;;;1.95;;
17662;SDS011;8950;56.892;15.090;2022-08-06T13:02:02;1.80;;;1.70;;
17662;SDS011;8950;56.892;15.090;2022-08-06T13:04:29;2.10;;;1.80;;
17662;SDS011;8950;56.892;15.090;2022-08-06T13:06:55;2.47;;;1.85;;
17662;SDS011;8950;56.892;15.090;2022-08-06T13:09:29;2.70;;;1.90;;
17662;SDS011;8950;56.892;15.090;2022-08-06T13:11:55;2.08;;;1.70;;
17662;SDS011;8950;56.892;15.090;2022-08-06T13:14:22;4.43;;;1.90;;
17662;SDS011;8950;56.892;15.090;2022-08-06T13:16:50;4.03;;;2.03;;
17662;SDS011;8950;56.892;15.090;2022-08-06T13:19:17;4.00;;;2.03;;
17662;SDS011;8950;56.892;15.090;2022-08-06T13:21:44;4.43;;;2.03;;
17662;SDS011;8950;56.892;15.090;2022-08-06T13:24:11;3.20;;;1.88;;
17662;SDS011;8950;56.892;15.090;2022-08-06T13:26:49;3.15;;;1.92;;
17662;SDS011;8950;56.892;15.090;2022-08-06T13:29:16;3.15;;;1.70;;
17662;SDS011;8950;56.892;15.090;2022-08-06T13:31:44;2.75;;;1.83;;
17662;SDS011;8950;56.892;15.090;2022-08-06T13:34:12;5.10;;;1.92;;
17662;SDS011;8950;56.892;15.090;2022-08-06T13:36:41;4.18;;;1.95;;
17662;SDS011;8950;56.892;15.090;2022-08-06T13:39:17;1.90;;;1.75;;
17662;SDS011;8950;56.892;15.090;2022-08-06T13:41:44;3.35;;;2.00;;
17662;SDS011;8950;56.892;15.090;2022-08-06T13:44:25;2.53;;;1.75;;
17662;SDS011;8950;56.892;15.090;2022-08-06T13:46:52;4.78;;;1.92;;
17662;SDS011;8950;56.892;15.090;2022-08-06T13:49:19;3.35;;;2.03;;
17662;SDS011;8950;56.892;15.090;2022-08-06T13:51:46;4.10;;;1.92;;
17662;SDS011;8950;56.892;15.090;2022-08-06T13:54:12;2.63;;;1.88;;
17662;SDS011;8950;56.892;15.090;2022-08-06T13:56:39;3.72;;;1.63;;
17662;SDS011;8950;56.892;15.090;2022-08-06T13:59:05;4.63;;;2.40;;
17662;SDS011;8950;56.892;15.090;2022-08-06T14:01:32;3.83;;;2.00;;
17662;SDS011;8950;56.892;15.090;2022-08-06T14:03:58;2.83;;;1.80;;
17662;SDS011;8950;56.892;15.090;2022-08-06T14:06:26;4.13;;;2.15;;
17662;SDS011;8950;56.892;15.090;2022-08-06T14:08:52;2.00;;;1.50;;
17662;SDS011;8950;56.892;15.090;2022-08-06T14:11:18;3.88;;;1.70;;
17662;SDS011;8950;56.892;15.090;2022-08-06T14:13:45;3.63;;;1.83;;
17662;SDS011;8950;56.892;15.090;2022-08-06T14:16:12;3.30;;;1.70;;
17662;SDS011;8950;56.892;15.090;2022-08-06T14:18:38;2.53;;;1.85;;
17662;SDS011;8950;56.892;15.090;2022-08-06T14:21:05;3.17;;;2.05;;
17662;SDS011;8950;56.892;15.090;2022-08-06T14:23:33;3.38;;;1.70;;
17662;SDS011;8950;56.892;15.090;2022-08-06T14:25:59;2.65;;;1.48;;
17662;SDS011;8950;56.892;15.090;2022-08-06T14:28:26;4.50;;;1.58;;
17662;SDS011;8950;56.892;15.090;2022-08-06T14:30:53;2.65;;;1.38;;
17662;SDS011;8950;56.892;15.090;2022-08-06T14:33:19;3.13;;;1.70;;
17662;SDS011;8950;56.892;15.090;2022-08-06T14:35:46;4.15;;;1.40;;
17662;SDS011;8950;56.892;15.090;2022-08-06T14:38:13;4.15;;;1.55;;
17662;SDS011;8950;56.892;15.090;2022-08-06T14:40:41;3.45;;;1.67;;
17662;SDS011;8950;56.892;15.090;2022-08-06T14:43:25;3.17;;;1.50;;
17662;SDS011;8950;56.892;15.090;2022-08-06T14:46:08;2.47;;;1.17;;
17662;SDS011;8950;56.892;15.090;2022-08-06T14:48:35;1.60;;;1.20;;
17662;SDS011;8950;56.892;15.090;2022-08-06T14:51:01;1.58;;;1.10;;
17662;SDS011;8950;56.892;15.090;2022-08-06T14:53:29;1.48;;;1.10;;
17662;SDS011;8950;56.892;15.090;2022-08-06T14:55:57;1.30;;;1.20;;
17662;SDS011;8950;56.892;15.090;2022-08-06T14:58:24;1.85;;;1.30;;
17662;SDS011;8950;56.892;15.090;2022-08-06T15:00:50;1.67;;;1.30;;
17662;SDS011;8950;56.892;15.090;2022-08-06T15:03:17;3.58;;;1.30;;
17662;SDS011;8950;56.892;15.090;2022-08-06T15:05:44;1.50;;;1.02;;
17662;SDS011;8950;56.892;15.090;2022-08-06T15:08:11;3.30;;;1.45;;
17662;SDS011;8950;56.892;15.090;2022-08-06T15:10:37;1.77;;;1.05;;
17662;SDS011;8950;56.892;15.090;2022-08-06T15:13:05;1.55;;;1.10;;
17662;SDS011;8950;56.892;15.090;2022-08-06T15:15:32;2.25;;;1.10;;
17662;SDS011;8950;56.892;15.090;2022-08-06T15:17:59;1.10;;;1.00;;
17662;SDS011;8950;56.892;15.090;2022-08-06T15:20:25;1.83;;;1.27;;